Nearby METAR Reports

 

EGSS - Stansted Airport, United Kingdom
Distance from station: NW 15mi, 24km
Updated: 25/06/2018 00:50
Clear
Clear
 Wind from SE
Wind: SE 6 mph , 9 km/h
Temperature: 14°C
Dew Point: 10°C
Humidity: 77%
Barometer: 1026 hPa
Clouds: Clear
Visibility: 6 miles , 10 km
2018/06/24 23:50 EGSS 242350Z AUTO 14005KT 9999 NCD 14/10 Q1026
EGMC - Southend-On-Sea, United Kingdom
Distance from station: SE 15mi, 25km
Updated: 25/06/2018 00:50
Clear
Clear
 Wind from NNW
Wind: NNW 2 mph , 4 km/h
Temperature: 11°C
Dew Point: 9°C
Humidity: 88%
Barometer: 1026 hPa
Summary: Clear
Visibility: greater than 7 miles , 10 km
2018/06/24 23:50 EGMC 242350Z 33002KT CAVOK 11/09 Q1026
 
EGLC - London City Airp, United Kingdom
Distance from station: SW 24mi, 39km
Updated: 25/06/2018 00:50
Clear
Clear
 Wind from E
Wind: E 6 mph , 9 km/h
Temperature: 17°C
Dew Point: 12°C
Humidity: 73%
Barometer: 1026 hPa
Clouds: Clear
Visibility: 6 miles , 10 km
2018/06/24 23:50 EGLC 242350Z AUTO 10005KT 9999 NCD 17/12 Q1026
EGUW - Wattisham Raf, United Kingdom
Distance from station: NE 34mi, 54km
Updated: 25/06/2018 00:50
Few Clouds
Few Clouds
 Wind from SW
Wind: SW 5 mph , 7 km/h
Temperature: 12°C
Dew Point: 9°C
Humidity: 82%
Barometer: 1025 hPa
Clouds: Few Clouds
Visibility: 6 miles , 10 km
Cloud details: Few Clouds 5486 m
2018/06/24 23:50 EGUW 242350Z AUTO 22004KT 9999 FEW180/// 12/09 Q1025
 
EGGW - Luton Airport, United Kingdom
Distance from station: WNW 37mi, 59km
Updated: 25/06/2018 00:50
Clear
Clear
 Wind from SE
Wind: SE 6 mph , 9 km/h
Temperature: 14°C
Dew Point: 10°C
Humidity: 77%
Barometer: 1026 hPa
Clouds: Clear
Visibility: 6 miles , 10 km
2018/06/24 23:50 EGGW 242350Z AUTO 14005KT 9999 NCD 14/10 Q1026
EGWU - Northolt Raf, United Kingdom
Distance from station: WSW 40mi, 64km
Updated: 25/06/2018 00:50
Clear
Clear
 Wind from S
Wind: S 3 mph , 6 km/h
Temperature: 15°C
Dew Point: 10°C
Humidity: 72%
Barometer: 1025 hPa
Clouds: Clear
Visibility: 6 miles , 10 km
2018/06/24 23:50 EGWU 242350Z AUTO 18003KT 9999 // NCD 15/10 Q1025